Time;durP1;ratioP1;P1;durP2;ratioP2;P2;SDS_P1;SDS_P2;PMS_P1;PMS_P2;Temp;Humidity;BMP_temperature;BMP_pressure;BME280_temperature;BME280_humidity;BME280_pressure;Samples;Min_cycle;Max_cycle;Signal;HPM_P1;HPM_P2
2023/08/19 00:00:54;;;;;;;29.98;24.02;;;;;;;22.19;100.00;100991.00;4958040;28;20082;-88
2023/08/19 00:03:19;;;;;;;29.93;24.27;;;;;;;22.15;100.00;100989.09;4975126;28;20479;-88
2023/08/19 00:05:45;;;;;;;34.83;24.70;;;;;;;22.14;100.00;101004.84;4957212;28;20499;-89
2023/08/19 00:08:11;;;;;;;28.95;24.40;;;;;;;22.12;100.00;100982.22;4957874;28;20066;-88
2023/08/19 00:10:39;;;;;;;31.23;24.20;;;;;;;22.14;100.00;100985.50;4974816;28;20086;-88
2023/08/19 00:13:05;;;;;;;31.05;24.40;;;;;;;22.12;100.00;100976.69;4957616;28;20073;-88
2023/08/19 00:15:30;;;;;;;30.17;24.27;;;;;;;22.12;100.00;100981.41;4957765;28;20066;-88
2023/08/19 00:17:56;;;;;;;29.47;24.33;;;;;;;22.11;100.00;100977.78;4957122;28;20432;-88
2023/08/19 00:20:23;;;;;;;31.55;25.17;;;;;;;22.11;100.00;100982.50;4957158;28;20038;-88
2023/08/19 00:22:48;;;;;;;27.45;23.75;;;;;;;22.14;100.00;100982.72;4941744;28;20027;-95
2023/08/19 00:25:14;;;;;;;29.23;23.83;;;;;;;22.12;100.00;100982.22;4941427;28;20430;-88
2023/08/19 00:27:39;;;;;;;29.30;23.43;;;;;;;22.14;100.00;100982.72;4975016;28;20038;-87
2023/08/19 00:30:05;;;;;;;28.63;23.27;;;;;;;22.13;100.00;100978.34;4941547;28;20546;-88
2023/08/19 00:32:31;;;;;;;31.90;23.73;;;;;;;22.15;100.00;100978.88;4941092;28;20043;-88
2023/08/19 00:34:56;;;;;;;27.33;23.57;;;;;;;22.13;100.00;100974.75;4941089;28;20081;-89
2023/08/19 00:37:22;;;;;;;30.55;23.67;;;;;;;22.11;100.00;100980.56;4957410;28;20133;-87
2023/08/19 00:39:47;;;;;;;28.50;22.97;;;;;;;22.08;100.00;100981.94;4941373;28;20093;-88
2023/08/19 00:42:13;;;;;;;29.77;22.97;;;;;;;22.05;100.00;100981.72;4943776;28;20164;-87
2023/08/19 00:44:38;;;;;;;28.23;22.50;;;;;;;22.06;100.00;100986.13;4960971;28;20305;-88
2023/08/19 00:47:07;;;;;;;30.63;23.70;;;;;;;22.08;100.00;100992.19;4978633;28;20029;-88
2023/08/19 00:49:33;;;;;;;32.38;24.42;;;;;;;22.08;100.00;100994.94;4960823;28;20038;-87
2023/08/19 00:52:00;;;;;;;30.40;23.83;;;;;;;22.11;100.00;100997.13;4961670;28;20045;-87
2023/08/19 00:54:26;;;;;;;31.25;23.42;;;;;;;22.10;100.00;100984.44;4977835;28;20058;-88
2023/08/19 00:56:55;;;;;;;27.33;22.88;;;;;;;22.14;100.00;100984.69;4960460;28;20428;-88
2023/08/19 00:59:21;;;;;;;27.73;23.17;;;;;;;22.16;100.00;100980.53;4945567;28;20117;-87
2023/08/19 01:01:46;;;;;;;26.13;21.85;;;;;;;22.19;100.00;100973.56;4928661;28;20563;-88
2023/08/19 01:04:11;;;;;;;30.17;22.60;;;;;;;22.19;100.00;100974.41;4961254;28;20035;-88
2023/08/19 01:07:01;;;;;;;25.83;22.13;;;;;;;22.24;100.00;100974.34;4944636;28;20039;-88
2023/08/19 01:09:30;;;;;;;28.27;21.58;;;;;;;22.24;100.00;100974.34;4960143;28;20543;-87
2023/08/19 01:12:26;;;;;;;25.83;21.50;;;;;;;22.25;100.00;100967.72;4960536;28;20042;-88
2023/08/19 01:15:21;;;;;;;26.25;20.92;;;;;;;22.32;100.00;100970.19;4977618;28;20526;-88
2023/08/19 01:17:48;;;;;;;23.88;20.38;;;;;;;22.36;100.00;100967.66;4959177;28;20440;-87
2023/08/19 01:20:16;;;;;;;28.97;20.40;;;;;;;22.37;100.00;100972.88;4960172;28;20070;-88
2023/08/19 01:22:54;;;;;;;25.75;20.38;;;;;;;22.41;100.00;100971.19;4977978;28;20054;-88
2023/08/19 01:25:21;;;;;;;25.48;20.23;;;;;;;22.45;100.00;100970.59;4978007;28;20106;-87
2023/08/19 01:27:47;;;;;;;31.38;20.25;;;;;;;22.47;100.00;100962.81;4977299;28;20078;-88
2023/08/19 01:30:13;;;;;;;23.50;19.07;;;;;;;22.47;100.00;100960.91;4960030;28;20046;-87
2023/08/19 01:32:38;;;;;;;23.35;19.25;;;;;;;22.49;100.00;100952.31;4960924;28;20027;-88
2023/08/19 01:35:05;;;;;;;21.93;18.73;;;;;;;22.49;100.00;100949.56;4960029;28;20487;-88
2023/08/19 01:37:43;;;;;;;22.67;18.60;;;;;;;22.55;100.00;100948.38;4960030;28;20082;-87
2023/08/19 01:40:13;;;;;;;22.58;18.15;;;;;;;22.54;100.00;100936.50;4960201;28;20133;-88
2023/08/19 01:42:39;;;;;;;26.08;17.77;;;;;;;22.54;100.00;100928.22;4959983;28;20031;-87
2023/08/19 01:45:06;;;;;;;20.43;17.07;;;;;;;22.56;100.00;100936.22;4960175;28;20027;-87
2023/08/19 01:47:32;;;;;;;22.45;17.80;;;;;;;22.57;100.00;100932.31;4959917;28;20027;-87
2023/08/19 01:49:57;;;;;;;19.87;16.93;;;;;;;22.58;100.00;100932.00;4976905;28;20050;-88
2023/08/19 01:52:23;;;;;;;18.70;16.08;;;;;;;22.63;100.00;100938.59;4976200;28;20038;-87
2023/08/19 01:54:48;;;;;;;17.93;15.97;;;;;;;22.64;100.00;100929.19;4958994;28;20475;-87
2023/08/19 01:57:14;;;;;;;17.40;15.60;;;;;;;22.66;100.00;100935.25;4977086;28;20383;-88
2023/08/19 01:59:39;;;;;;;23.80;15.80;;;;;;;22.68;100.00;100939.38;4960004;28;20034;-88
2023/08/19 02:02:07;;;;;;;18.10;14.98;;;;;;;22.67;100.00;100934.94;4959234;28;20451;-88
2023/08/19 02:04:33;;;;;;;17.55;15.32;;;;;;;22.68;100.00;100925.53;4977374;28;20038;-88
2023/08/19 02:07:01;;;;;;;18.93;14.43;;;;;;;22.73;100.00;100933.75;4959290;28;20495;-88
2023/08/19 02:09:28;;;;;;;17.40;13.30;;;;;;;22.72;100.00;100925.75;4976838;28;20093;-88
2023/08/19 02:11:54;;;;;;;16.57;13.70;;;;;;;22.71;100.00;100922.19;4959401;28;20037;-88
2023/08/19 02:14:22;;;;;;;16.95;14.40;;;;;;;22.72;100.00;100920.22;4960015;28;20027;-88
2023/08/19 02:16:47;;;;;;;16.65;13.85;;;;;;;22.71;100.00;100924.94;4959354;28;20066;-88
2023/08/19 02:19:12;;;;;;;16.43;14.10;;;;;;;22.74;100.00;100915.25;4959240;28;20122;-87
2023/08/19 02:21:38;;;;;;;16.87;13.90;;;;;;;22.76;100.00;100918.53;4959342;28;20031;-88
2023/08/19 02:24:04;;;;;;;15.17;13.57;;;;;;;22.77;100.00;100912.69;4958826;28;20062;-87
2023/08/19 02:26:34;;;;;;;15.90;12.57;;;;;;;22.80;100.00;100916.81;4959062;28;20034;-88
2023/08/19 02:28:59;;;;;;;14.85;13.25;;;;;;;22.83;100.00;100915.41;4943652;28;20035;-87
2023/08/19 02:31:26;;;;;;;17.33;13.53;;;;;;;22.80;100.00;100908.53;4959046;28;20034;-88
2023/08/19 02:33:52;;;;;;;15.68;12.80;;;;;;;22.81;100.00;100901.03;4976312;28;20126;-88
2023/08/19 02:36:17;;;;;;;14.40;12.60;;;;;;;22.83;100.00;100901.59;4976230;28;20130;-88
2023/08/19 02:38:43;;;;;;;16.30;13.23;;;;;;;22.83;100.00;100907.94;4958624;28;20035;-88
2023/08/19 02:41:08;;;;;;;16.50;12.98;;;;;;;22.84;100.00;100903.22;4959202;28;20030;-88
2023/08/19 02:43:36;;;;;;;13.93;12.43;;;;;;;22.81;100.00;100904.66;4976192;28;20030;-88
2023/08/19 02:46:02;;;;;;;15.88;12.57;;;;;;;22.82;100.00;100900.75;4958763;28;20459;-88
2023/08/19 02:48:28;;;;;;;14.43;12.57;;;;;;;22.84;100.00;100900.44;4958762;28;20061;-88
2023/08/19 02:50:54;;;;;;;14.83;12.27;;;;;;;22.83;100.00;100899.63;4976076;28;20386;-88
2023/08/19 02:53:20;;;;;;;14.50;12.43;;;;;;;22.83;100.00;100899.63;4958936;28;20128;-87
2023/08/19 02:55:45;;;;;;;14.03;11.57;;;;;;;22.82;100.00;100900.75;4958660;28;20123;-88
2023/08/19 02:58:13;;;;;;;13.77;12.27;;;;;;;22.81;100.00;100899.13;4942570;28;20031;-88
2023/08/19 03:00:39;;;;;;;15.53;12.40;;;;;;;22.81;100.00;100901.88;4976479;28;20031;-88
2023/08/19 03:03:08;;;;;;;13.43;12.02;;;;;;;22.82;100.00;100902.69;4942489;28;20094;-87
2023/08/19 03:05:39;;;;;;;16.67;12.27;;;;;;;22.83;100.00;100899.63;4942525;28;20035;-88
2023/08/19 03:08:11;;;;;;;15.27;11.73;;;;;;;22.83;100.00;100896.88;4958637;28;20034;-88
2023/08/19 03:10:40;;;;;;;15.60;12.50;;;;;;;22.82;100.00;100900.75;4958629;28;20139;-88
2023/08/19 03:13:09;;;;;;;12.25;10.98;;;;;;;22.83;100.00;100902.41;4942067;28;20022;-88
2023/08/19 03:15:37;;;;;;;13.70;12.00;;;;;;;22.83;100.00;100899.63;4975656;28;20027;-88
2023/08/19 03:18:02;;;;;;;13.18;11.77;;;;;;;22.80;100.00;100897.47;4958332;28;20487;-88
2023/08/19 03:20:28;;;;;;;14.57;12.23;;;;;;;22.82;100.00;100886.91;4958218;28;20066;-88
2023/08/19 03:22:53;;;;;;;15.05;12.07;;;;;;;22.80;100.00;100888.34;4926143;28;20039;-88
2023/08/19 03:25:21;;;;;;;12.73;11.23;;;;;;;22.79;100.00;100884.75;4957763;28;20081;-88
2023/08/19 03:27:49;;;;;;;13.65;11.85;;;;;;;22.78;100.00;100892.22;4975276;28;20035;-88
2023/08/19 03:30:15;;;;;;;17.10;11.83;;;;;;;22.80;100.00;100889.16;4957757;28;20041;-88
2023/08/19 03:32:43;;;;;;;12.93;11.30;;;;;;;22.80;100.00;100886.41;4958109;28;20039;-88
2023/08/19 03:35:09;;;;;;;12.73;10.93;;;;;;;22.78;100.00;100886.69;4942174;28;20026;-88
2023/08/19 03:37:34;;;;;;;15.65;10.93;;;;;;;22.77;100.00;100885.03;4958576;28;20427;-88
2023/08/19 03:40:00;;;;;;;13.60;10.70;;;;;;;22.79;100.00;100890.28;4941931;28;20035;-88
2023/08/19 03:42:25;;;;;;;15.35;11.50;;;;;;;22.79;100.00;100901.34;4958116;28;20027;-88
2023/08/19 03:44:53;;;;;;;15.10;11.30;;;;;;;22.79;100.00;100904.09;4975121;28;20105;-88
2023/08/19 03:47:19;;;;;;;16.75;11.20;;;;;;;22.75;100.00;100897.50;4974826;28;20023;-88
2023/08/19 03:49:44;;;;;;;12.47;11.17;;;;;;;22.74;100.00;100895.88;4975391;28;20530;-88
2023/08/19 03:52:10;;;;;;;17.17;11.57;;;;;;;22.76;100.00;100890.88;4974884;28;20547;-88
2023/08/19 03:54:35;;;;;;;13.90;10.70;;;;;;;22.75;100.00;100897.50;4974394;28;20038;-88
2023/08/19 03:57:01;;;;;;;12.18;10.82;;;;;;;22.74;100.00;100898.66;4957677;28;20031;-88
2023/08/19 03:59:27;;;;;;;12.25;10.52;;;;;;;22.72;100.00;100896.19;4975266;28;20472;-88
2023/08/19 04:01:52;;;;;;;11.83;10.63;;;;;;;22.71;100.00;100902.81;4957533;28;20034;-88
2023/08/19 04:04:18;;;;;;;13.47;10.70;;;;;;;22.70;100.00;100892.88;4974909;28;20034;-88
2023/08/19 04:06:43;;;;;;;14.57;11.20;;;;;;;22.69;100.00;100898.69;4957245;28;20035;-88
2023/08/19 04:09:09;;;;;;;14.37;11.23;;;;;;;22.69;100.00;100896.78;4958039;28;20039;-88
2023/08/19 04:11:37;;;;;;;12.70;10.82;;;;;;;22.68;100.00;100899.84;4957753;28;20031;-88
2023/08/19 04:14:02;;;;;;;13.75;10.25;;;;;;;22.65;100.00;100892.09;4958308;28;20137;-88
2023/08/19 04:16:28;;;;;;;13.17;10.60;;;;;;;22.66;100.00;100902.91;4958860;28;20478;-88
2023/08/19 04:18:53;;;;;;;12.10;10.33;;;;;;;22.64;100.00;100901.53;4978937;28;20088;-88
2023/08/19 04:21:18;;;;;;;14.23;9.83;;;;;;;22.67;100.00;100909.25;4978536;28;20113;-88
2023/08/19 04:23:44;;;;;;;13.60;10.15;;;;;;;22.65;100.00;100904.00;4945270;28;20034;-88
2023/08/19 04:26:09;;;;;;;12.77;10.00;;;;;;;22.64;100.00;100901.53;4945040;28;20068;-88
2023/08/19 04:28:37;;;;;;;12.60;9.83;;;;;;;22.66;100.00;100908.44;4961376;28;20114;-88
2023/08/19 04:31:07;;;;;;;11.60;9.77;;;;;;;22.64;100.00;100905.13;4960783;28;20041;-88
2023/08/19 04:33:34;;;;;;;17.02;10.38;;;;;;;22.64;100.00;100905.13;4961274;28;20034;-88
2023/08/19 04:36:00;;;;;;;14.65;9.48;;;;;;;22.66;100.00;100905.66;4960966;28;20051;-88
2023/08/19 04:38:35;;;;;;;11.83;9.83;;;;;;;22.65;100.00;100920.59;4961807;28;20023;-88
2023/08/19 04:41:00;;;;;;;11.00;9.18;;;;;;;22.67;100.00;100912.81;4978577;28;20066;-88
2023/08/19 04:43:27;;;;;;;10.63;9.33;;;;;;;22.66;100.00;100910.34;4961071;28;20035;-88
2023/08/19 04:45:54;;;;;;;14.55;8.98;;;;;;;22.68;100.00;100919.19;4960851;28;20122;-86
2023/08/19 04:48:20;;;;;;;14.65;9.40;;;;;;;22.69;100.00;100920.81;4978399;28;20031;-87
2023/08/19 04:50:46;;;;;;;12.57;8.60;;;;;;;22.72;100.00;100920.22;4973039;28;20150;-86
2023/08/19 04:53:11;;;;;;;10.23;9.03;;;;;;;22.72;100.00;100906.41;4941388;29;20122;-87
2023/08/19 04:55:37;;;;;;;13.93;8.53;;;;;;;22.74;100.00;100906.94;4941378;29;20039;-89
2023/08/19 04:58:02;;;;;;;10.73;8.70;;;;;;;22.75;100.00;100897.50;4910079;29;20134;-89
2023/08/19 05:00:28;;;;;;;13.27;8.82;;;;;;;22.77;100.00;100909.94;4941511;29;20025;-88
2023/08/19 05:02:53;;;;;;;11.87;8.23;;;;;;;22.83;100.00;100904.34;4941600;29;20031;-88
2023/08/19 05:05:19;;;;;;;9.43;8.10;;;;;;;22.84;100.00;100908.75;4925835;29;20042;-87
2023/08/19 05:07:47;;;;;;;9.77;8.05;;;;;;;22.85;100.00;100913.97;4959192;29;20034;-88
2023/08/19 05:10:15;;;;;;;15.70;9.27;;;;;;;22.88;100.00;100910.63;4941800;29;20031;-89
2023/08/19 05:12:40;;;;;;;13.35;8.68;;;;;;;22.94;100.00;100905.84;4941049;29;20059;-89
2023/08/19 05:15:06;;;;;;;12.90;8.03;;;;;;;23.02;100.00;100915.44;4941446;29;20027;-90
2023/08/19 05:17:32;;;;;;;9.67;8.27;;;;;;;23.09;100.00;100918.63;4941613;29;20279;-91
2023/08/19 05:20:02;;;;;;;12.50;8.45;;;;;;;23.15;100.00;100922.19;4958336;29;20476;-91
2023/08/19 05:22:27;;;;;;;11.68;8.45;;;;;;;23.18;100.00;100927.97;4925444;29;20031;-90
2023/08/19 05:24:55;;;;;;;8.97;8.10;;;;;;;23.21;100.00;100918.22;4958121;29;20027;-87
2023/08/19 05:27:23;;;;;;;11.20;8.77;;;;;;;23.22;100.00;100931.78;4958380;28;20039;-88
2023/08/19 05:29:57;;;;;;;10.53;8.37;;;;;;;23.17;100.00;100931.84;4941929;29;20085;-88
2023/08/19 05:32:23;;;;;;;14.38;8.60;;;;;;;23.12;100.00;100932.75;4958155;29;20046;-87
2023/08/19 05:34:48;;;;;;;11.85;8.18;;;;;;;23.12;100.00;100929.16;4949247;28;20022;-86
2023/08/19 05:37:14;;;;;;;9.13;8.00;;;;;;;23.12;100.00;100918.91;4959622;28;20050;-87
2023/08/19 05:39:39;;;;;;;9.13;8.03;;;;;;;23.16;100.00;100926.59;4960080;28;20495;-89
2023/08/19 05:42:05;;;;;;;13.50;8.50;;;;;;;23.17;100.00;100928.25;4944157;28;20065;-88
2023/08/19 05:44:48;;;;;;;12.43;8.20;;;;;;;23.24;100.00;100926.75;4959210;28;20041;-89
2023/08/19 05:47:16;;;;;;;9.60;8.15;;;;;;;23.28;100.00;100929.75;4959992;28;20046;-86
2023/08/19 05:49:41;;;;;;;8.67;7.73;;;;;;;23.32;100.00;100928.03;4976392;28;20045;-86
2023/08/19 05:52:12;;;;;;;11.65;8.15;;;;;;;23.40;100.00;100932.06;4959384;28;20027;-87
2023/08/19 05:54:37;;;;;;;10.13;8.02;;;;;;;23.44;100.00;100930.34;4943814;28;20037;-87
2023/08/19 05:57:03;;;;;;;9.37;7.50;;;;;;;23.50;100.00;100928.31;4959431;28;20030;-87
2023/08/19 05:59:28;;;;;;;11.03;8.03;;;;;;;23.53;100.00;100936.84;4959562;28;20089;-86
2023/08/19 06:01:54;;;;;;;10.27;7.80;;;;;;;23.56;100.00;100943.72;4959668;28;20030;-87
2023/08/19 06:04:19;;;;;;;13.98;8.10;;;;;;;23.54;100.00;100952.34;4959645;28;20031;-87
2023/08/19 06:06:47;;;;;;;15.30;8.43;;;;;;;23.57;100.00;100950.91;4959595;28;20038;-86
2023/08/19 06:09:12;;;;;;;11.00;7.40;;;;;;;23.61;100.00;100941.69;4959505;28;20082;-87
2023/08/19 06:11:47;;;;;;;11.70;8.20;;;;;;;23.73;100.00;100948.72;4976547;28;20035;-87
2023/08/19 06:14:13;;;;;;;9.82;7.35;;;;;;;23.74;100.00;100944.81;4959161;28;20041;-87
2023/08/19 06:16:38;;;;;;;10.80;8.07;;;;;;;23.75;100.00;100952.81;4958984;28;20118;-86
2023/08/19 06:19:04;;;;;;;11.27;7.57;;;;;;;23.79;100.00;100961.38;4976633;28;20031;-87
2023/08/19 06:21:32;;;;;;;11.17;7.60;;;;;;;23.85;100.00;100953.81;4959350;28;20042;-86
2023/08/19 06:23:58;;;;;;;10.98;7.90;;;;;;;23.94;100.00;100963.09;4958952;28;20373;-86
2023/08/19 06:26:25;;;;;;;10.47;7.83;;;;;;;24.06;100.00;100965.38;4959352;28;20084;-86
2023/08/19 06:28:52;;;;;;;10.23;7.10;;;;;;;24.10;100.00;100983.06;4976370;28;20274;-86
2023/08/19 06:31:18;;;;;;;12.15;7.18;;;;;;;24.19;100.00;100974.88;4959224;28;20042;-86
2023/08/19 06:33:44;;;;;;;13.88;7.82;;;;;;;24.28;100.00;100981.34;4976447;28;20043;-87
2023/08/19 06:36:17;;;;;;;12.67;7.37;;;;;;;24.33;100.00;100978.47;4958392;28;20518;-87
2023/08/19 06:38:51;;;;;;;13.52;8.27;;;;;;;24.38;100.00;100975.63;4975585;28;20030;-87
2023/08/19 06:41:17;;;;;;;13.13;7.40;;;;;;;24.44;100.00;100987.44;4959024;28;20038;-86
2023/08/19 06:43:43;;;;;;;11.27;7.72;;;;;;;24.46;100.00;100994.34;4958699;28;20038;-87
2023/08/19 06:46:09;;;;;;;12.27;7.40;;;;;;;24.51;100.00;100994.22;4975934;28;20468;-86
2023/08/19 06:48:35;;;;;;;8.82;7.30;;;;;;;24.56;99.60;101000.81;4958719;28;20442;-87
2023/08/19 06:51:03;;;;;;;10.15;8.05;;;;;;;24.64;98.51;100998.19;4976361;28;20121;-86
2023/08/19 06:53:32;;;;;;;12.02;8.02;;;;;;;24.63;98.57;100996.53;4975666;28;20031;-87
2023/08/19 06:56:23;;;;;;;10.85;7.75;;;;;;;24.63;98.94;101002.06;4959695;28;20035;-85
2023/08/19 06:58:53;;;;;;;14.73;7.47;;;;;;;24.55;98.85;101004.69;4976173;28;20034;-86
2023/08/19 07:01:26;;;;;;;10.90;7.68;;;;;;;24.43;99.27;101000.47;4958565;28;20508;-87
2023/08/19 07:03:52;;;;;;;9.35;7.40;;;;;;;24.33;100.00;101007.03;4975475;28;20037;-87
2023/08/19 07:06:20;;;;;;;9.90;7.55;;;;;;;24.26;100.00;101006.59;4975031;28;20027;-87
2023/08/19 07:08:48;;;;;;;10.27;7.50;;;;;;;24.26;100.00;101012.16;4975410;28;20569;-87
2023/08/19 07:11:16;;;;;;;12.00;7.95;;;;;;;24.30;100.00;101010.41;4975647;28;20066;-87
2023/08/19 07:13:43;;;;;;;10.07;7.55;;;;;;;24.45;100.00;101001.00;4957937;28;20079;-87
2023/08/19 07:16:10;;;;;;;13.90;8.23;;;;;;;24.59;100.00;101009.34;4957992;28;20116;-87
2023/08/19 07:18:41;;;;;;;11.00;7.80;;;;;;;24.76;99.63;101016.25;4958336;28;20034;-86
2023/08/19 07:21:15;;;;;;;13.40;7.77;;;;;;;24.95;98.12;101007.81;4976712;28;20022;-86
2023/08/19 07:23:44;;;;;;;10.40;7.75;;;;;;;25.26;97.23;101010.78;4958149;28;20182;-87
2023/08/19 07:26:09;;;;;;;9.45;7.35;;;;;;;25.43;95.68;101018.50;4975081;28;20027;-87
2023/08/19 07:28:35;;;;;;;11.07;8.17;;;;;;;25.57;94.88;101015.69;4975315;28;20493;-86
2023/08/19 07:31:04;;;;;;;12.00;7.45;;;;;;;25.62;93.78;101006.41;4957979;28;20038;-87
2023/08/19 07:33:30;;;;;;;12.57;8.13;;;;;;;25.70;94.05;101025.94;4957532;28;20134;-87
2023/08/19 07:35:55;;;;;;;9.77;7.57;;;;;;;25.82;92.96;101030.09;4958064;28;20029;-87
2023/08/19 07:38:24;;;;;;;10.32;7.63;;;;;;;25.97;92.35;101045.59;4957487;28;20476;-87
2023/08/19 07:40:51;;;;;;;14.95;7.63;;;;;;;26.15;91.91;101050.19;4974894;28;20110;-89
2023/08/19 07:43:19;;;;;;;12.93;8.00;;;;;;;26.25;91.03;101043.56;4958650;28;20452;-88
2023/08/19 07:45:47;;;;;;;10.02;7.50;;;;;;;26.44;90.82;101049.72;4974660;28;20027;-88
2023/08/19 07:48:12;;;;;;;10.27;7.70;;;;;;;26.51;90.46;101056.78;4957708;28;20383;-89
2023/08/19 07:50:38;;;;;;;9.17;6.77;;;;;;;26.48;90.19;101063.00;4975179;28;20043;-88
2023/08/19 07:53:03;;;;;;;8.90;7.40;;;;;;;26.43;90.61;101061.97;4957032;28;20360;-88
2023/08/19 07:55:32;;;;;;;10.25;7.47;;;;;;;26.43;90.86;101077.84;4957643;28;20138;-88
2023/08/19 07:57:57;;;;;;;13.37;7.40;;;;;;;26.45;89.94;101053.31;4957782;28;20035;-88
2023/08/19 08:00:23;;;;;;;11.70;7.18;;;;;;;26.41;90.00;101055.09;4974703;28;20438;-88
2023/08/19 08:02:48;;;;;;;8.97;7.60;;;;;;;26.42;90.86;101046.41;4957382;28;20549;-89
2023/08/19 08:05:14;;;;;;;14.00;7.30;;;;;;;26.52;90.60;101052.88;4941596;28;20062;-89
2023/08/19 08:07:39;;;;;;;9.37;7.00;;;;;;;26.53;89.73;101057.28;4942160;28;20482;-88
2023/08/19 08:10:05;;;;;;;10.70;6.90;;;;;;;26.49;90.61;101068.22;4957361;28;20038;-89
2023/08/19 08:12:33;;;;;;;10.70;7.03;;;;;;;26.41;90.38;101066.22;4974903;28;20113;-88
2023/08/19 08:14:59;;;;;;;10.05;7.05;;;;;;;26.38;91.13;101064.91;4957608;28;20415;-89
2023/08/19 08:17:24;;;;;;;10.50;6.53;;;;;;;26.38;91.28;101062.13;4957479;28;20041;-89
2023/08/19 08:19:50;;;;;;;10.07;6.90;;;;;;;26.36;90.72;101063.56;4974537;28;20110;-89
2023/08/19 08:22:15;;;;;;;12.00;6.70;;;;;;;26.37;90.48;101068.81;4956923;28;20491;-88
2023/08/19 08:24:42;;;;;;;9.32;6.72;;;;;;;26.33;90.79;101078.13;4957216;28;20069;-88
2023/08/19 08:27:19;;;;;;;9.27;6.40;;;;;;;26.30;91.06;101089.88;4957805;28;20023;-88
2023/08/19 08:29:45;;;;;;;9.10;6.10;;;;;;;26.20;91.81;101090.94;4957980;28;20031;-88
2023/08/19 08:32:10;;;;;;;11.50;7.00;;;;;;;26.13;91.22;101083.06;4974549;28;20488;-88
2023/08/19 08:34:41;;;;;;;11.60;6.67;;;;;;;26.15;92.38;101068.84;4957109;28;20027;-88
2023/08/19 08:37:09;;;;;;;10.63;6.68;;;;;;;26.00;93.81;101122.81;4974729;28;20098;-89
2023/08/19 08:39:34;;;;;;;9.48;7.38;;;;;;;25.55;97.21;101115.16;4941346;28;20043;-89
2023/08/19 08:42:01;;;;;;;10.43;7.03;;;;;;;25.50;98.93;101115.28;4974171;28;20123;-88
2023/08/19 08:44:27;;;;;;;10.10;6.82;;;;;;;25.61;97.93;101115.88;4957213;28;20062;-88
2023/08/19 08:46:55;;;;;;;14.63;7.20;;;;;;;25.71;96.19;101110.09;4957163;28;20035;-89
2023/08/19 08:49:24;;;;;;;13.55;7.07;;;;;;;25.82;96.50;101110.69;4974487;28;20023;-88
2023/08/19 08:51:51;;;;;;;9.32;7.40;;;;;;;25.83;94.85;101110.38;4957012;28;20053;-88
2023/08/19 08:54:19;;;;;;;13.50;6.93;;;;;;;25.93;95.77;101117.69;4956967;28;20432;-88
2023/08/19 08:56:44;;;;;;;15.32;7.60;;;;;;;26.02;94.63;101138.06;4956955;28;20038;-88
2023/08/19 08:59:10;;;;;;;13.07;7.57;;;;;;;26.05;94.46;101131.88;4957329;28;20027;-88
2023/08/19 09:01:40;;;;;;;8.83;6.93;;;;;;;26.19;94.95;101147.69;4956904;28;20547;-88
2023/08/19 09:04:08;;;;;;;11.52;7.72;;;;;;;26.35;93.60;101145.34;4960559;28;20598;-88
2023/08/19 09:06:37;;;;;;;14.32;7.60;;;;;;;26.48;92.99;101144.47;4960413;28;20085;-88
2023/08/19 09:09:08;;;;;;;8.32;7.20;;;;;;;26.64;92.34;101156.03;4978566;28;20038;-88
2023/08/19 09:11:37;;;;;;;9.30;7.65;;;;;;;26.74;90.94;101157.78;4960597;28;20122;-88
2023/08/19 09:14:15;;;;;;;10.27;7.47;;;;;;;26.94;91.30;101161.97;4958436;28;20034;-90
2023/08/19 09:16:41;;;;;;;12.45;8.60;;;;;;;27.10;89.94;101163.22;4941878;29;20035;-89
2023/08/19 09:19:09;;;;;;;10.07;9.00;;;;;;;27.17;89.86;101167.53;4925140;29;20031;-89
2023/08/19 09:21:34;;;;;;;11.95;8.93;;;;;;;27.21;89.18;101160.13;4941080;29;20023;-89
2023/08/19 09:24:00;;;;;;;12.43;9.30;;;;;;;27.31;88.54;101169.06;4941035;29;20535;-90
2023/08/19 09:26:26;;;;;;;22.63;9.60;;;;;;;27.30;89.01;101177.72;4941018;29;20519;-89
2023/08/19 09:29:00;;;;;;;11.07;9.15;;;;;;;27.43;89.12;101187.13;4940929;29;20043;-89
2023/08/19 09:31:30;;;;;;;14.57;10.37;;;;;;;27.51;87.66;101189.16;4958212;29;20035;-89
2023/08/19 09:33:58;;;;;;;15.73;9.27;;;;;;;27.73;87.65;101181.84;4958104;28;20031;-89
2023/08/19 09:36:26;;;;;;;13.52;10.40;;;;;;;28.16;85.80;101195.88;4941715;29;20047;-89
2023/08/19 09:38:56;;;;;;;17.52;10.57;;;;;;;28.32;83.46;101212.94;4957438;29;20055;-88
2023/08/19 09:41:28;;;;;;;13.75;10.50;;;;;;;28.36;83.14;101193.56;4957987;28;20043;-88
2023/08/19 09:43:56;;;;;;;14.37;10.77;;;;;;;28.41;83.50;101192.63;4957820;29;20117;-88
2023/08/19 09:46:33;;;;;;;13.80;10.77;;;;;;;28.50;84.56;101208.19;4940893;29;20023;-89
2023/08/19 09:49:05;;;;;;;17.15;11.50;;;;;;;28.51;82.33;101209.03;4941513;29;20031;-89
2023/08/19 09:51:33;;;;;;;13.73;11.05;;;;;;;28.81;82.30;101223.16;4940630;29;20035;-88
2023/08/19 09:54:09;;;;;;;17.75;12.05;;;;;;;28.84;81.22;101220.50;4961244;29;20138;-89
2023/08/19 09:56:35;;;;;;;20.83;12.83;;;;;;;28.65;80.80;101234.81;4924651;29;20070;-89
2023/08/19 09:59:08;;;;;;;15.02;12.30;;;;;;;28.85;81.52;101232.50;4940436;29;20042;-88
2023/08/19 10:01:34;;;;;;;20.50;10.82;;;;;;;29.26;79.41;101239.47;4940626;29;20171;-89
2023/08/19 10:04:00;;;;;;;15.13;10.55;;;;;;;29.59;76.87;101241.69;4924954;29;20059;-89
2023/08/19 10:06:34;;;;;;;13.57;10.10;;;;;;;29.34;76.92;101238.66;4924524;29;20145;-88
2023/08/19 10:09:48;;;;;;;12.18;10.80;;;;;;;29.34;77.22;101249.00;4940996;29;20035;-89
2023/08/19 10:15:39;;;;;;;14.30;10.07;;;;;;;28.84;79.31;101236.44;4956958;29;20098;-89
2023/08/19 10:18:19;;;;;;;12.10;10.40;;;;;;;28.82;79.32;101255.47;4940909;29;20134;-89
2023/08/19 10:20:56;;;;;;;17.77;10.82;;;;;;;28.94;78.62;101241.69;4940219;29;20093;-89
2023/08/19 10:23:23;;;;;;;18.70;10.95;;;;;;;29.71;76.85;101241.78;4940787;29;20067;-90
2023/08/19 10:25:49;;;;;;;16.30;11.07;;;;;;;30.15;73.11;101257.50;4924021;29;20038;-90
2023/08/19 10:28:23;;;;;;;17.40;10.93;;;;;;;30.34;73.34;101265.44;4924369;29;20039;-91
2023/08/19 10:31:20;;;;;;;13.00;11.38;;;;;;;30.43;72.69;101271.84;4940808;29;20035;-88
2023/08/19 10:33:46;;;;;;;15.27;10.93;;;;;;;30.41;71.17;101260.16;4923806;29;20452;-88
2023/08/19 10:36:18;;;;;;;14.83;10.00;;;;;;;30.78;70.86;101265.94;4939854;29;20027;-88
2023/08/19 10:39:00;;;;;;;13.55;9.77;;;;;;;30.78;70.58;101266.78;4939687;29;20066;-88
2023/08/19 10:41:36;;;;;;;11.93;9.70;;;;;;;30.31;71.62;101266.97;4939603;29;20062;-88
2023/08/19 10:44:10;;;;;;;15.32;10.52;;;;;;;29.80;73.12;101286.47;4946334;28;20041;-88
2023/08/19 10:46:51;;;;;;;13.95;10.32;;;;;;;29.40;74.85;101289.59;4976092;28;20060;-88
2023/08/19 10:49:23;;;;;;;12.63;10.07;;;;;;;28.93;76.46;101300.66;4959221;28;20070;-87
2023/08/19 10:51:53;;;;;;;13.98;11.98;;;;;;;28.45;78.53;101306.03;4958809;28;20306;-88
2023/08/19 10:54:38;;;;;;;13.13;10.93;;;;;;;28.23;80.43;101315.34;4958224;28;20034;-88
2023/08/19 10:57:10;;;;;;;15.13;12.07;;;;;;;27.91;82.02;101324.88;4959420;28;20045;-88
2023/08/19 10:59:36;;;;;;;18.15;13.70;;;;;;;27.63;82.59;101322.31;4958190;28;20484;-88
2023/08/19 11:02:09;;;;;;;16.97;12.07;;;;;;;27.65;84.74;101320.00;4942365;28;20035;-88
2023/08/19 11:04:40;;;;;;;15.43;12.10;;;;;;;27.68;84.36;101319.38;4975805;28;20030;-88
2023/08/19 11:07:07;;;;;;;16.02;12.43;;;;;;;27.62;84.11;101320.66;4958270;28;20058;-88
2023/08/19 11:09:38;;;;;;;16.05;12.80;;;;;;;27.55;84.11;101320.28;4958072;28;20117;-88
2023/08/19 11:12:04;;;;;;;16.17;12.10;;;;;;;27.50;84.52;101328.78;4958535;28;20026;-88
2023/08/19 11:14:38;;;;;;;16.60;11.37;;;;;;;27.42;83.39;101349.91;4957980;28;20030;-88
2023/08/19 11:17:04;;;;;;;13.98;11.30;;;;;;;27.28;83.77;101361.06;4950493;28;20395;-88